Terminal Aerodrome Forecast
Issued by NWS

Home | Current Version | Previous Version | Text Only | Print | Product List | Glossary On
Versions: 1 2 3 4 5 6 7 8 9 10 11 12 13 14
000
FTUS46 KMTR 280500
TAFSNS
TAF
KSNS 280520Z 2806/2906 31005KT P6SM OVC007
     FM281200 VRB03KT 4SM BR OVC004
     FM281700 VRB03KT P6SM SCT008 SCT200
     FM281900 29010KT P6SM SCT200
     FM290400 29006KT P6SM BKN008=

USA.gov is the U.S. government's official web portal to all federal, state and local government web resources and services.